createdAt,value
2022-09-16T00:00:41.809Z,1004.69
2022-09-16T00:01:41.986Z,1004.71
2022-09-16T00:02:42.115Z,1004.72
2022-09-16T00:03:42.286Z,1004.76
2022-09-16T00:04:42.453Z,1004.71
2022-09-16T00:05:42.617Z,1004.64
2022-09-16T00:06:42.788Z,1004.68
2022-09-16T00:07:42.957Z,1004.67
2022-09-16T00:08:43.211Z,1004.66
2022-09-16T00:09:43.384Z,1004.68
2022-09-16T00:10:43.478Z,1004.72
2022-09-16T00:11:43.653Z,1004.70
2022-09-16T00:12:43.813Z,1004.72
2022-09-16T00:13:43.980Z,1004.72
2022-09-16T00:14:44.140Z,1004.63
2022-09-16T00:15:44.327Z,1004.66
2022-09-16T00:16:44.534Z,1004.67
2022-09-16T00:17:44.662Z,1004.65
2022-09-16T00:18:44.821Z,1004.67
2022-09-16T00:19:44.982Z,1004.60
2022-09-16T00:20:45.161Z,1004.62
2022-09-16T00:21:45.336Z,1004.67
2022-09-16T00:22:45.505Z,1004.66
2022-09-16T00:23:45.681Z,1004.63
2022-09-16T00:24:45.843Z,1004.67
2022-09-16T00:25:46.016Z,1004.60
2022-09-16T00:26:46.172Z,1004.61
2022-09-16T00:27:46.349Z,1004.63
2022-09-16T00:28:46.558Z,1004.63
2022-09-16T00:29:46.736Z,1004.65
2022-09-16T00:30:46.888Z,1004.60
2022-09-16T00:31:47.137Z,1004.68
2022-09-16T00:32:47.226Z,1004.66
2022-09-16T00:33:47.405Z,1004.62
2022-09-16T00:34:47.563Z,1004.63
2022-09-16T00:35:47.739Z,1004.71
2022-09-16T00:36:47.902Z,1004.66
2022-09-16T00:37:48.079Z,1004.69
2022-09-16T00:38:48.251Z,1004.69
2022-09-16T00:39:48.567Z,1004.67
2022-09-16T00:40:48.573Z,1004.71
2022-09-16T00:41:48.730Z,1004.71
2022-09-16T00:42:48.897Z,1004.72
2022-09-16T00:43:49.067Z,1004.71
2022-09-16T00:44:49.229Z,1004.71
2022-09-16T00:45:49.392Z,1004.76
2022-09-16T00:46:49.613Z,1004.69
2022-09-16T00:47:49.745Z,1004.75
2022-09-16T00:48:49.899Z,1004.77
2022-09-16T00:49:50.081Z,1004.77
2022-09-16T00:50:50.249Z,1004.72
2022-09-16T00:51:50.417Z,1004.72
2022-09-16T00:52:50.581Z,1004.74
2022-09-16T00:53:50.748Z,1004.77
2022-09-16T00:54:50.923Z,1004.77
2022-09-16T00:55:51.093Z,1004.78
2022-09-16T00:56:51.254Z,1004.73
2022-09-16T00:57:51.432Z,1004.73
2022-09-16T00:58:51.584Z,1004.62
2022-09-16T00:59:51.775Z,1004.62
2022-09-16T01:00:51.978Z,1004.65
2022-09-16T01:01:52.215Z,1004.70
2022-09-16T01:02:52.287Z,1004.74
2022-09-16T01:03:52.462Z,1004.73
2022-09-16T01:04:52.635Z,1004.67
2022-09-16T01:05:52.800Z,1004.71
2022-09-16T01:06:52.960Z,1004.70
2022-09-16T01:07:53.124Z,1004.75
2022-09-16T01:08:53.313Z,1004.74
2022-09-16T01:09:53.477Z,1004.72
2022-09-16T01:10:53.637Z,1004.72
2022-09-16T01:11:53.812Z,1004.71
2022-09-16T01:12:53.972Z,1004.69
2022-09-16T01:13:54.128Z,1004.77
2022-09-16T01:14:54.306Z,1004.74
2022-09-16T01:15:54.553Z,1004.71
2022-09-16T01:16:54.646Z,1004.71
2022-09-16T01:17:54.813Z,1004.71
2022-09-16T01:18:54.990Z,1004.71
2022-09-16T01:19:55.156Z,1004.78
2022-09-16T01:20:55.322Z,1004.76
2022-09-16T01:21:55.480Z,1004.73
2022-09-16T01:22:55.646Z,1004.76
2022-09-16T01:23:55.832Z,1004.73
2022-09-16T01:24:56.006Z,1004.72
2022-09-16T01:25:56.171Z,1004.74
2022-09-16T01:26:56.333Z,1004.77
2022-09-16T01:27:56.503Z,1004.75
2022-09-16T01:28:56.673Z,1004.75
2022-09-16T01:29:56.848Z,1004.76
2022-09-16T01:30:57.091Z,1004.77
2022-09-16T01:31:57.193Z,1004.72
2022-09-16T01:32:57.355Z,1004.74
2022-09-16T01:33:57.536Z,1004.71
2022-09-16T01:34:57.689Z,1004.72
2022-09-16T01:35:57.856Z,1004.74
2022-09-16T01:36:58.016Z,1004.72
2022-09-16T01:37:58.176Z,1004.69
2022-09-16T01:38:58.346Z,1004.69
2022-09-16T01:39:58.543Z,1004.71
2022-09-16T01:40:58.688Z,1004.77
2022-09-16T01:41:58.849Z,1004.78
2022-09-16T01:42:59.037Z,1004.78
2022-09-16T01:43:59.217Z,1004.76
2022-09-16T01:44:59.377Z,1004.78
2022-09-16T01:45:59.548Z,1004.76
2022-09-16T01:46:59.721Z,1004.76
2022-09-16T01:47:59.901Z,1004.73
2022-09-16T01:49:00.073Z,1004.74
2022-09-16T01:50:00.218Z,1004.73
2022-09-16T01:51:00.410Z,1004.68
2022-09-16T01:52:00.581Z,1004.73
2022-09-16T01:53:00.735Z,1004.73
2022-09-16T01:54:00.915Z,1004.72
2022-09-16T01:55:01.081Z,1004.72
2022-09-16T01:56:01.242Z,1004.73
2022-09-16T01:57:01.401Z,1004.75
2022-09-16T01:58:01.563Z,1004.76
2022-09-16T01:59:01.748Z,1004.78
2022-09-16T02:00:01.907Z,1004.79
2022-09-16T02:01:02.059Z,1004.84
2022-09-16T02:02:02.298Z,1004.81
2022-09-16T02:03:02.431Z,1004.81
2022-09-16T02:04:03.035Z,1004.79
2022-09-16T02:05:02.727Z,1004.83
2022-09-16T02:06:02.881Z,1004.79
2022-09-16T02:07:03.085Z,1004.80
2022-09-16T02:08:03.253Z,1004.77
2022-09-16T02:09:03.428Z,1004.80
2022-09-16T02:10:03.590Z,1004.78
2022-09-16T02:11:03.759Z,1004.80
2022-09-16T02:12:03.916Z,1004.81
2022-09-16T02:13:04.077Z,1004.84
2022-09-16T02:14:04.257Z,1004.84
2022-09-16T02:15:04.476Z,1004.83
2022-09-16T02:16:04.625Z,1004.76
2022-09-16T02:17:04.774Z,1004.80
2022-09-16T02:18:04.927Z,1004.81
2022-09-16T02:19:05.107Z,1004.80
2022-09-16T02:20:05.270Z,1004.79
2022-09-16T02:21:05.429Z,1004.80
2022-09-16T02:22:05.593Z,1004.82
2022-09-16T02:23:05.761Z,1004.83
2022-09-16T02:24:05.940Z,1004.80
2022-09-16T02:25:06.117Z,1004.78
2022-09-16T02:26:06.271Z,1004.79
2022-09-16T02:27:06.434Z,1004.82
2022-09-16T02:28:06.597Z,1004.74
2022-09-16T02:29:06.761Z,1004.76
2022-09-16T02:30:06.943Z,1004.78
2022-09-16T02:31:07.125Z,1004.77
2022-09-16T02:32:07.269Z,1004.74
2022-09-16T02:33:07.446Z,1004.75
2022-09-16T02:34:07.603Z,1004.70
2022-09-16T02:35:07.763Z,1004.75
2022-09-16T02:36:07.923Z,1004.73
2022-09-16T02:37:08.091Z,1004.75
2022-09-16T02:38:08.268Z,1004.78
2022-09-16T02:39:08.443Z,1004.73
2022-09-16T02:40:08.678Z,1004.72
2022-09-16T02:41:08.775Z,1004.74
2022-09-16T02:42:08.929Z,1004.75
2022-09-16T02:43:09.145Z,1004.77
2022-09-16T02:44:09.312Z,1004.73
2022-09-16T02:45:09.475Z,1004.70
2022-09-16T02:46:09.672Z,1004.70
2022-09-16T02:47:09.834Z,1004.72
2022-09-16T02:48:10.018Z,1004.73
2022-09-16T02:49:10.147Z,1004.72
2022-09-16T02:50:10.306Z,1004.70
2022-09-16T02:51:10.474Z,1004.73
2022-09-16T02:52:10.660Z,1004.70
2022-09-16T02:53:10.820Z,1004.75
2022-09-16T02:54:10.979Z,1004.74
2022-09-16T02:55:11.139Z,1004.73
2022-09-16T02:56:11.297Z,1004.74
2022-09-16T02:57:11.500Z,1004.77
2022-09-16T02:58:11.661Z,1004.72
2022-09-16T02:59:11.827Z,1004.78
2022-09-16T03:00:11.986Z,1004.77
2022-09-16T03:01:12.161Z,1004.75
2022-09-16T03:02:12.361Z,1004.73
2022-09-16T03:03:12.532Z,1004.71
2022-09-16T03:04:12.633Z,1004.74
2022-09-16T03:05:12.793Z,1004.75
2022-09-16T03:06:12.951Z,1004.76
2022-09-16T03:07:13.108Z,1004.73
2022-09-16T03:08:13.313Z,1004.71
2022-09-16T03:09:13.473Z,1004.71
2022-09-16T03:10:13.630Z,1004.76
2022-09-16T03:11:13.825Z,1004.77
2022-09-16T03:12:13.977Z,1004.75
2022-09-16T03:13:14.186Z,1004.73
2022-09-16T03:14:14.346Z,1004.74
2022-09-16T03:15:14.505Z,1004.74
2022-09-16T03:16:14.703Z,1004.76
2022-09-16T03:17:14.867Z,1004.76
2022-09-16T03:18:15.028Z,1004.75
2022-09-16T03:19:15.186Z,1004.73
2022-09-16T03:20:15.345Z,1004.77
2022-09-16T03:21:15.505Z,1004.74
2022-09-16T03:22:15.683Z,1004.77
2022-09-16T03:23:15.842Z,1004.76
2022-09-16T03:24:16.008Z,1004.72
2022-09-16T03:25:16.178Z,1004.74
2022-09-16T03:26:16.339Z,1004.79
2022-09-16T03:27:16.518Z,1004.77
2022-09-16T03:28:16.676Z,1004.76
2022-09-16T03:29:16.838Z,1004.73
2022-09-16T03:30:16.998Z,1004.76
2022-09-16T03:31:17.195Z,1004.73
2022-09-16T03:32:17.349Z,1004.73
2022-09-16T03:33:17.510Z,1004.70
2022-09-16T03:34:17.679Z,1004.73
2022-09-16T03:35:17.843Z,1004.72
2022-09-16T03:36:17.999Z,1004.78
2022-09-16T03:37:18.172Z,1004.71
2022-09-16T03:38:18.332Z,1004.67
2022-09-16T03:39:18.508Z,1004.68
2022-09-16T03:40:18.701Z,1004.69
2022-09-16T03:41:18.863Z,1004.71
2022-09-16T03:42:19.018Z,1004.70
2022-09-16T03:43:19.205Z,1004.74
2022-09-16T03:44:19.363Z,1004.73
2022-09-16T03:45:19.555Z,1004.73
2022-09-16T03:46:19.762Z,1004.76
2022-09-16T03:47:19.885Z,1004.71
2022-09-16T03:48:20.045Z,1004.65
2022-09-16T03:49:20.217Z,1004.69
2022-09-16T03:50:20.390Z,1004.63
2022-09-16T03:51:20.561Z,1004.66
2022-09-16T03:52:20.707Z,1004.68
2022-09-16T03:53:20.870Z,1004.65
2022-09-16T03:54:21.027Z,1004.62
2022-09-16T03:55:21.207Z,1004.60
2022-09-16T03:56:21.365Z,1004.59
2022-09-16T03:57:21.524Z,1004.62
2022-09-16T03:58:21.686Z,1004.61
2022-09-16T03:59:21.850Z,1004.65
2022-09-16T04:00:22.023Z,1004.58
2022-09-16T04:01:22.256Z,1004.63
2022-09-16T04:02:22.402Z,1004.66
2022-09-16T04:03:22.550Z,1004.61
2022-09-16T04:04:22.709Z,1004.64
2022-09-16T04:05:22.890Z,1004.65
2022-09-16T04:06:23.045Z,1004.61
2022-09-16T04:07:23.240Z,1004.59
2022-09-16T04:08:23.399Z,1004.60
2022-09-16T04:09:23.562Z,1004.68
2022-09-16T04:10:23.748Z,1004.67
2022-09-16T04:11:23.904Z,1004.68
2022-09-16T04:12:24.062Z,1004.69
2022-09-16T04:13:24.225Z,1004.68
2022-09-16T04:14:24.383Z,1004.71
2022-09-16T04:15:24.564Z,1004.65
2022-09-16T04:16:24.743Z,1004.60
2022-09-16T04:17:24.913Z,1004.63
2022-09-16T04:18:25.074Z,1004.60
2022-09-16T04:19:25.256Z,1004.61
2022-09-16T04:20:25.424Z,1004.62
2022-09-16T04:21:25.591Z,1004.62
2022-09-16T04:22:25.755Z,1004.63
2022-09-16T04:23:25.905Z,1004.65
2022-09-16T04:24:26.115Z,1004.64
2022-09-16T04:25:26.285Z,1004.67
2022-09-16T04:26:26.447Z,1004.63
2022-09-16T04:27:26.614Z,1004.63
2022-09-16T04:28:26.773Z,1004.64
2022-09-16T04:29:26.932Z,1004.62
2022-09-16T04:30:27.109Z,1004.69
2022-09-16T04:31:27.320Z,1004.65
2022-09-16T04:32:27.427Z,1004.70
2022-09-16T04:33:27.584Z,1004.76
2022-09-16T04:34:27.790Z,1004.71
2022-09-16T04:35:27.961Z,1004.71
2022-09-16T04:36:28.122Z,1004.69
2022-09-16T04:37:28.281Z,1004.65
2022-09-16T04:38:28.446Z,1004.65
2022-09-16T04:39:28.600Z,1004.61
2022-09-16T04:40:28.833Z,1004.64
2022-09-16T04:41:28.992Z,1004.70
2022-09-16T04:42:29.161Z,1004.70
2022-09-16T04:43:29.331Z,1004.68
2022-09-16T04:44:29.506Z,1004.73
2022-09-16T04:45:29.664Z,1004.68
2022-09-16T04:46:29.912Z,1004.67
2022-09-16T04:47:30.019Z,1004.73
2022-09-16T04:48:30.191Z,1004.67
2022-09-16T04:49:30.360Z,1004.67
2022-09-16T04:50:30.532Z,1004.68
2022-09-16T04:51:30.725Z,1004.64
2022-09-16T04:52:30.875Z,1004.68
2022-09-16T04:53:31.055Z,1004.63
2022-09-16T04:54:31.285Z,1004.59
2022-09-16T04:55:31.401Z,1004.60
2022-09-16T04:56:31.617Z,1004.62
2022-09-16T04:57:31.737Z,1004.58
2022-09-16T04:58:31.914Z,1004.59
2022-09-16T04:59:32.135Z,1004.63
2022-09-16T05:00:32.277Z,1004.61
2022-09-16T05:01:32.617Z,1004.57
2022-09-16T05:02:32.632Z,1004.63
2022-09-16T05:03:32.843Z,1004.58
2022-09-16T05:04:32.998Z,1004.61
2022-09-16T05:05:33.179Z,1004.64
2022-09-16T05:06:33.378Z,1004.56
2022-09-16T05:07:33.518Z,1004.60
2022-09-16T05:08:33.706Z,1004.57
2022-09-16T05:09:33.888Z,1004.64
2022-09-16T05:10:34.068Z,1004.58
2022-09-16T05:11:34.263Z,1004.54
2022-09-16T05:12:34.421Z,1004.59
2022-09-16T05:13:34.571Z,1004.59
2022-09-16T05:14:34.746Z,1004.58
2022-09-16T05:15:34.999Z,1004.56
2022-09-16T05:16:35.161Z,1004.56
2022-09-16T05:17:50.388Z,1004.60
2022-09-16T05:18:36.422Z,1004.60
2022-09-16T05:19:35.580Z,1004.59
2022-09-16T05:20:35.801Z,1004.61
2022-09-16T05:21:35.949Z,1004.55
2022-09-16T05:22:36.130Z,1004.61
2022-09-16T05:23:36.312Z,1004.61
2022-09-16T05:24:36.489Z,1004.58
2022-09-16T05:25:36.695Z,1004.58
2022-09-16T05:26:36.847Z,1004.56
2022-09-16T05:27:36.985Z,1004.58
2022-09-16T05:28:37.168Z,1004.55
2022-09-16T05:29:37.345Z,1004.50
2022-09-16T05:30:37.568Z,1004.55
2022-09-16T05:31:37.705Z,1004.57
2022-09-16T05:32:37.891Z,1004.51
2022-09-16T05:33:38.067Z,1004.59
2022-09-16T05:34:38.261Z,1004.58
2022-09-16T05:35:38.398Z,1004.60
2022-09-16T05:36:38.587Z,1004.63
2022-09-16T05:37:38.768Z,1004.62
2022-09-16T05:38:38.963Z,1004.55
2022-09-16T05:39:39.219Z,1004.54
2022-09-16T05:40:39.288Z,1004.59
2022-09-16T05:41:39.462Z,1004.57
2022-09-16T05:42:39.635Z,1004.60
2022-09-16T05:43:39.806Z,1004.60
2022-09-16T05:44:40.001Z,1004.60
2022-09-16T05:45:40.337Z,1004.58
2022-09-16T05:46:40.330Z,1004.67
2022-09-16T05:47:40.518Z,1004.60
2022-09-16T05:48:40.701Z,1004.59
2022-09-16T05:49:40.901Z,1004.62
2022-09-16T05:50:41.051Z,1004.55
2022-09-16T05:51:41.224Z,1004.62
2022-09-16T05:52:41.392Z,1004.59
2022-09-16T05:53:41.578Z,1004.55
2022-09-16T05:54:41.752Z,1004.50
2022-09-16T05:55:41.922Z,1004.52
2022-09-16T05:56:42.082Z,1004.57
2022-09-16T05:57:42.254Z,1004.55
2022-09-16T05:58:42.430Z,1004.60
2022-09-16T05:59:42.606Z,1004.57
2022-09-16T06:00:42.735Z,1004.55
2022-09-16T06:01:43.017Z,1004.59
2022-09-16T06:02:43.164Z,1004.60
2022-09-16T06:03:43.275Z,1004.51
2022-09-16T06:04:43.454Z,1004.55
2022-09-16T06:05:45.788Z,1004.57
2022-09-16T06:06:43.811Z,1004.54
2022-09-16T06:07:43.973Z,1004.53
2022-09-16T06:08:44.184Z,1004.58
2022-09-16T06:09:44.350Z,1004.56
2022-09-16T06:10:44.508Z,1004.53
2022-09-16T06:11:44.663Z,1004.65
2022-09-16T06:12:44.869Z,1004.61
2022-09-16T06:13:45.048Z,1004.55
2022-09-16T06:14:45.222Z,1004.63
2022-09-16T06:15:45.429Z,1004.67
2022-09-16T06:16:45.570Z,1004.56
2022-09-16T06:17:45.741Z,1004.59
2022-09-16T06:18:45.884Z,1004.61
2022-09-16T06:19:46.039Z,1004.59
2022-09-16T06:20:46.202Z,1004.60
2022-09-16T06:21:46.353Z,1004.60
2022-09-16T06:22:46.532Z,1004.58
2022-09-16T06:23:46.706Z,1004.59
2022-09-16T06:24:46.863Z,1004.54
2022-09-16T06:25:47.030Z,1004.56
2022-09-16T06:26:47.204Z,1004.55
2022-09-16T06:27:47.383Z,1004.59
2022-09-16T06:28:47.556Z,1004.58
2022-09-16T06:29:47.743Z,1004.59
2022-09-16T06:30:47.978Z,1004.51
2022-09-16T06:31:48.102Z,1004.58
2022-09-16T06:32:48.244Z,1004.54
2022-09-16T06:33:48.486Z,1004.62
2022-09-16T06:34:48.605Z,1004.49
2022-09-16T06:35:48.767Z,1004.51
2022-09-16T06:36:48.947Z,1004.48
2022-09-16T06:37:49.085Z,1004.48
2022-09-16T06:38:49.265Z,1004.52
2022-09-16T06:39:49.478Z,1004.48
2022-09-16T06:40:49.643Z,1004.48
2022-09-16T06:41:49.837Z,1004.48
2022-09-16T06:42:50.020Z,1004.46
2022-09-16T06:43:50.198Z,1004.41
2022-09-16T06:44:50.386Z,1004.41
2022-09-16T06:45:50.621Z,1004.45
2022-09-16T06:46:50.758Z,1004.39
2022-09-16T06:47:50.908Z,1004.47
2022-09-16T06:48:51.091Z,1004.44
2022-09-16T06:49:51.271Z,1004.46
2022-09-16T06:50:51.477Z,1004.41
2022-09-16T06:51:51.680Z,1004.47
2022-09-16T06:52:51.801Z,1004.49
2022-09-16T06:53:51.994Z,1004.46
2022-09-16T06:54:52.181Z,1004.51
2022-09-16T06:55:52.368Z,1004.51
2022-09-16T06:56:52.544Z,1004.57
2022-09-16T06:57:52.732Z,1004.48
2022-09-16T06:58:52.926Z,1004.50
2022-09-16T06:59:53.133Z,1004.52
2022-09-16T07:00:53.331Z,1004.50
2022-09-16T07:01:53.488Z,1004.51
2022-09-16T07:02:53.611Z,1004.48
2022-09-16T07:03:53.873Z,1004.57
2022-09-16T07:04:53.965Z,1004.53
2022-09-16T07:05:54.163Z,1004.56
2022-09-16T07:07:10.720Z,1004.53
2022-09-16T07:07:55.494Z,1004.56
2022-09-16T07:08:54.671Z,1004.56
2022-09-16T07:09:54.818Z,1004.55
2022-09-16T07:10:54.986Z,1004.56
2022-09-16T07:11:55.187Z,1004.56
2022-09-16T07:12:55.364Z,1004.52
2022-09-16T07:13:55.536Z,1004.57
2022-09-16T07:14:55.676Z,1004.59
2022-09-16T07:16:12.259Z,1004.50
2022-09-16T07:16:57.073Z,1004.47
2022-09-16T07:17:56.228Z,1004.59
2022-09-16T07:19:00.590Z,1004.46
2022-09-16T07:19:56.558Z,1004.49
2022-09-16T07:20:56.747Z,1004.49
2022-09-16T07:21:56.928Z,1004.54
2022-09-16T07:22:57.134Z,1004.51
2022-09-16T07:23:57.298Z,1004.52
2022-09-16T07:24:57.429Z,1004.54
2022-09-16T07:25:57.614Z,1004.52
2022-09-16T07:26:57.827Z,1004.50
2022-09-16T07:27:57.978Z,1004.53
2022-09-16T07:28:58.153Z,1004.52
2022-09-16T07:30:00.184Z,1004.52
2022-09-16T07:30:58.594Z,1004.57
2022-09-16T07:31:58.693Z,1004.60
2022-09-16T07:32:58.897Z,1004.58
2022-09-16T07:34:03.585Z,1004.62
2022-09-16T07:35:00.205Z,1004.66
2022-09-16T07:35:59.391Z,1004.64
2022-09-16T07:36:59.563Z,1004.68
2022-09-16T07:38:00.275Z,1004.67
2022-09-16T07:38:59.970Z,1004.65
2022-09-16T07:40:00.219Z,1004.59
2022-09-16T07:41:00.285Z,1004.70
2022-09-16T07:42:05.213Z,1004.67
2022-09-16T07:43:01.663Z,1004.63
2022-09-16T07:44:00.852Z,1004.62
2022-09-16T07:45:01.036Z,1004.66
2022-09-16T07:46:01.231Z,1004.64
2022-09-16T07:47:01.396Z,1004.68
2022-09-16T07:48:01.540Z,1004.71
2022-09-16T07:49:01.728Z,1004.72
2022-09-16T07:50:01.926Z,1004.68
2022-09-16T07:51:02.118Z,1004.70
2022-09-16T07:52:02.268Z,1004.69
2022-09-16T07:53:02.452Z,1004.71
2022-09-16T07:54:02.638Z,1004.71
2022-09-16T07:55:03.015Z,1004.70
2022-09-16T07:56:04.038Z,1004.68
2022-09-16T07:57:03.153Z,1004.74
2022-09-16T07:58:03.330Z,1004.70
2022-09-16T07:59:03.505Z,1004.74
2022-09-16T08:00:03.685Z,1004.75
2022-09-16T08:01:05.036Z,1004.71
2022-09-16T08:02:04.196Z,1004.69
2022-09-16T08:03:04.269Z,1004.72
2022-09-16T08:04:04.390Z,1004.71
2022-09-16T08:05:04.583Z,1004.68
2022-09-16T08:06:04.815Z,1004.70
2022-09-16T08:07:04.909Z,1004.69
2022-09-16T08:08:05.093Z,1004.72
2022-09-16T08:09:15.489Z,1004.71
2022-09-16T08:10:06.502Z,1004.68
2022-09-16T08:11:05.639Z,1004.72
2022-09-16T08:12:05.849Z,1004.75
2022-09-16T08:13:06.018Z,1004.74
2022-09-16T08:14:06.196Z,1004.73
2022-09-16T08:15:06.426Z,1004.66
2022-09-16T08:16:06.655Z,1004.76
2022-09-16T08:17:06.725Z,1004.77
2022-09-16T08:18:06.894Z,1004.75
2022-09-16T08:19:07.043Z,1004.75
2022-09-16T08:20:07.264Z,1004.77
2022-09-16T08:21:07.398Z,1004.66
2022-09-16T08:22:07.586Z,1004.73
2022-09-16T08:23:07.751Z,1004.75
2022-09-16T08:24:07.949Z,1004.77
2022-09-16T08:25:08.101Z,1004.72
2022-09-16T08:26:08.271Z,1004.86
2022-09-16T08:27:08.429Z,1004.76
2022-09-16T08:28:08.589Z,1004.78
2022-09-16T08:29:10.210Z,1004.78
2022-09-16T08:30:08.972Z,1004.84
2022-09-16T08:31:09.183Z,1004.89
2022-09-16T08:32:09.379Z,1004.83
2022-09-16T08:33:09.535Z,1004.85
2022-09-16T08:34:09.712Z,1004.78
2022-09-16T08:35:09.862Z,1004.75
2022-09-16T08:36:10.054Z,1004.79
2022-09-16T08:37:10.227Z,1004.77
2022-09-16T08:38:10.396Z,1004.82
2022-09-16T08:39:10.572Z,1004.76
2022-09-16T08:40:10.806Z,1004.74
2022-09-16T08:41:10.883Z,1004.68
2022-09-16T08:42:11.086Z,1004.63
2022-09-16T08:43:11.218Z,1004.60
2022-09-16T08:44:11.396Z,1004.64
2022-09-16T08:45:11.585Z,1004.65
2022-09-16T08:46:11.816Z,1004.68
2022-09-16T08:47:11.938Z,1004.66
2022-09-16T08:48:12.122Z,1004.61
2022-09-16T08:49:12.301Z,1004.66
2022-09-16T08:50:12.498Z,1004.65
2022-09-16T08:51:12.678Z,1004.57
2022-09-16T08:52:12.883Z,1004.61
2022-09-16T08:53:13.015Z,1004.59
2022-09-16T08:54:13.208Z,1004.73
2022-09-16T08:55:13.355Z,1004.71
2022-09-16T08:56:13.524Z,1004.64
2022-09-16T08:57:13.706Z,1004.61
2022-09-16T08:58:13.899Z,1004.66
2022-09-16T08:59:14.037Z,1004.68
2022-09-16T09:00:14.218Z,1004.71
2022-09-16T09:01:14.472Z,1004.66
2022-09-16T09:02:15.124Z,1004.64
2022-09-16T09:03:14.709Z,1004.70
2022-09-16T09:04:14.890Z,1004.72
2022-09-16T09:05:15.039Z,1004.71
2022-09-16T09:06:15.231Z,1004.64
2022-09-16T09:07:15.421Z,1004.68
2022-09-16T09:08:15.598Z,1004.67
2022-09-16T09:09:15.741Z,1004.65
2022-09-16T09:10:15.959Z,1004.67
2022-09-16T09:11:16.091Z,1004.67
2022-09-16T09:12:17.124Z,1004.71
2022-09-16T09:13:17.245Z,1004.74
2022-09-16T09:14:16.617Z,1004.66
2022-09-16T09:15:16.812Z,1004.70
2022-09-16T09:16:17.032Z,1004.65
2022-09-16T09:17:17.146Z,1004.63
2022-09-16T09:18:17.332Z,1004.59
2022-09-16T09:19:17.484Z,1004.60
2022-09-16T09:20:17.646Z,1004.56
2022-09-16T09:21:17.806Z,1004.59
2022-09-16T09:22:17.975Z,1004.57
2022-09-16T09:23:18.158Z,1004.61
2022-09-16T09:24:18.309Z,1004.57
2022-09-16T09:25:18.495Z,1004.48
2022-09-16T09:26:18.656Z,1004.54
2022-09-16T09:27:18.818Z,1004.52
2022-09-16T09:28:19.019Z,1004.63
2022-09-16T09:29:19.152Z,1004.55
2022-09-16T09:30:19.319Z,1004.52
2022-09-16T09:31:19.503Z,1004.52
2022-09-16T09:32:19.684Z,1004.58
2022-09-16T09:33:44.337Z,1004.50
2022-09-16T09:34:20.993Z,1004.47
2022-09-16T09:35:20.238Z,1004.51
2022-09-16T09:36:20.349Z,1004.50
2022-09-16T09:37:20.520Z,1004.54
2022-09-16T09:38:20.700Z,1004.43
2022-09-16T09:39:20.870Z,1004.41
2022-09-16T09:40:21.058Z,1004.42
2022-09-16T09:41:21.171Z,1004.42
2022-09-16T09:42:21.382Z,1004.37
2022-09-16T09:43:21.532Z,1004.43
2022-09-16T09:44:21.722Z,1004.43
2022-09-16T09:45:21.892Z,1004.44
2022-09-16T09:46:22.205Z,1004.36
2022-09-16T09:47:22.273Z,1004.33
2022-09-16T09:48:22.446Z,1004.40
2022-09-16T09:49:22.617Z,1004.36
2022-09-16T09:50:22.798Z,1004.25
2022-09-16T09:51:22.972Z,1004.34
2022-09-16T09:52:23.186Z,1004.32
2022-09-16T09:53:23.336Z,1004.32
2022-09-16T09:54:23.524Z,1004.28
2022-09-16T09:55:23.696Z,1004.30
2022-09-16T09:56:23.876Z,1004.29
2022-09-16T09:57:24.061Z,1004.33
2022-09-16T09:58:24.250Z,1004.30
2022-09-16T09:59:24.389Z,1004.32
2022-09-16T10:00:24.581Z,1004.30
2022-09-16T10:01:24.745Z,1004.26
2022-09-16T10:02:24.921Z,1004.26
2022-09-16T10:03:25.058Z,1004.24
2022-09-16T10:04:25.210Z,1004.30
2022-09-16T10:05:25.398Z,1004.19
2022-09-16T10:06:25.552Z,1004.31
2022-09-16T10:07:25.716Z,1004.28
2022-09-16T10:08:25.896Z,1004.20
2022-09-16T10:09:26.060Z,1004.18
2022-09-16T10:10:26.215Z,1004.17
2022-09-16T10:11:26.398Z,1004.18
2022-09-16T10:12:26.598Z,1004.17
2022-09-16T10:13:26.721Z,1004.12
2022-09-16T10:14:26.909Z,1004.16
2022-09-16T10:15:27.063Z,1004.15
2022-09-16T10:16:27.293Z,1004.18
2022-09-16T10:17:27.383Z,1004.15
2022-09-16T10:18:27.549Z,1004.11
2022-09-16T10:19:27.714Z,1004.09
2022-09-16T10:20:27.881Z,1004.12
2022-09-16T10:21:28.053Z,1004.06
2022-09-16T10:22:28.233Z,1004.09
2022-09-16T10:23:30.295Z,1004.04
2022-09-16T10:24:28.572Z,1004.04
2022-09-16T10:25:28.765Z,1004.05
2022-09-16T10:26:28.949Z,1004.09
2022-09-16T10:27:29.088Z,1004.06
2022-09-16T10:28:29.253Z,1003.98
2022-09-16T10:29:29.417Z,1004.02
2022-09-16T10:30:29.603Z,1003.97
2022-09-16T10:31:33.562Z,1004.06
2022-09-16T10:32:29.913Z,1004.03
2022-09-16T10:33:30.074Z,1004.10
2022-09-16T10:34:30.289Z,1004.12
2022-09-16T10:35:30.470Z,1004.10
2022-09-16T10:36:30.606Z,1003.96
2022-09-16T10:37:30.791Z,1004.05
2022-09-16T10:38:30.987Z,1004.07
2022-09-16T10:39:31.110Z,1004.01
2022-09-16T10:40:31.333Z,1004.06
2022-09-16T10:41:31.478Z,1004.11
2022-09-16T10:42:31.642Z,1004.09
2022-09-16T10:43:31.829Z,1004.06
2022-09-16T10:44:31.992Z,1004.11
2022-09-16T10:45:32.146Z,1004.10
2022-09-16T10:46:32.380Z,1004.11
2022-09-16T10:47:32.515Z,1004.06
2022-09-16T10:48:32.634Z,1004.08
2022-09-16T10:49:32.786Z,1004.11
2022-09-16T10:50:32.968Z,1004.06
2022-09-16T10:51:33.127Z,1004.07
2022-09-16T10:52:33.314Z,1004.03
2022-09-16T10:53:36.338Z,1004.12
2022-09-16T10:54:34.649Z,1004.21
2022-09-16T10:55:33.837Z,1004.17
2022-09-16T10:56:34.012Z,1004.07
2022-09-16T10:57:34.198Z,1004.07
2022-09-16T10:58:34.359Z,1003.98
2022-09-16T10:59:34.542Z,1004.04
2022-09-16T11:00:34.770Z,1003.97
2022-09-16T11:01:36.614Z,1004.02
2022-09-16T11:02:35.108Z,1003.99
2022-09-16T11:03:35.241Z,1004.06
2022-09-16T11:04:35.420Z,1004.06
2022-09-16T11:05:35.596Z,1004.03
2022-09-16T11:06:35.779Z,1003.95
2022-09-16T11:07:35.958Z,1004.12
2022-09-16T11:08:36.121Z,1003.88
2022-09-16T11:09:36.267Z,1003.90
2022-09-16T11:10:36.466Z,1003.97
2022-09-16T11:11:36.748Z,1004.05
2022-09-16T11:12:36.813Z,1003.94
2022-09-16T11:13:36.970Z,1003.99
2022-09-16T11:14:37.153Z,1003.94
2022-09-16T11:15:37.313Z,1003.87
2022-09-16T11:16:37.676Z,1003.91
2022-09-16T11:17:37.677Z,1003.88
2022-09-16T11:18:37.835Z,1003.84
2022-09-16T11:19:38.037Z,1003.78
2022-09-16T11:20:38.176Z,1003.96
2022-09-16T11:21:38.357Z,1003.89
2022-09-16T11:22:38.535Z,1003.88
2022-09-16T11:23:38.708Z,1003.91
2022-09-16T11:24:38.889Z,1003.84
2022-09-16T11:25:39.019Z,1003.84
2022-09-16T11:26:39.199Z,1003.94
2022-09-16T11:27:39.381Z,1003.93
2022-09-16T11:28:39.540Z,1003.92
2022-09-16T11:29:39.751Z,1003.92
2022-09-16T11:30:39.887Z,1003.96
2022-09-16T11:31:40.099Z,1003.95
2022-09-16T11:32:40.478Z,1003.95
2022-09-16T11:33:40.424Z,1003.79
2022-09-16T11:34:40.626Z,1003.87
2022-09-16T11:35:40.792Z,1003.75
2022-09-16T11:36:40.987Z,1004.00
2022-09-16T11:37:41.171Z,1003.61
2022-09-16T11:38:43.945Z,1003.72
2022-09-16T11:39:41.502Z,1003.72
2022-09-16T11:40:41.671Z,1003.72
2022-09-16T11:41:41.842Z,1003.70
2022-09-16T11:42:42.013Z,1003.68
2022-09-16T11:43:42.182Z,1003.65
2022-09-16T11:44:42.350Z,1003.74
2022-09-16T11:45:42.506Z,1003.77
2022-09-16T11:46:42.771Z,1003.67
2022-09-16T11:47:42.853Z,1003.67
2022-09-16T11:48:43.013Z,1003.70
2022-09-16T11:49:43.186Z,1003.84
2022-09-16T11:50:43.355Z,1003.80
2022-09-16T11:51:43.536Z,1003.64
2022-09-16T11:52:43.736Z,1003.78
2022-09-16T11:53:45.142Z,1003.71
2022-09-16T11:54:44.084Z,1003.72
2022-09-16T11:55:44.250Z,1003.76
2022-09-16T11:56:44.440Z,1003.60
2022-09-16T11:57:44.568Z,1003.66
2022-09-16T11:58:44.770Z,1003.67
2022-09-16T11:59:44.914Z,1003.62
2022-09-16T12:00:45.082Z,1003.64
2022-09-16T12:01:45.315Z,1003.44
2022-09-16T12:02:45.502Z,1003.61
2022-09-16T12:03:45.618Z,1003.71
2022-09-16T12:04:45.787Z,1003.61
2022-09-16T12:05:46.010Z,1003.61
2022-09-16T12:06:46.145Z,1003.63
2022-09-16T12:07:46.318Z,1003.58